Time;durP1;ratioP1;P1;durP2;ratioP2;P2;SDS_P1;SDS_P2;PMS_P1;PMS_P2;Temp;Humidity;BMP_temperature;BMP_pressure;BME280_temperature;BME280_humidity;BME280_pressure;Samples;Min_cycle;Max_cycle;Signal;HPM_P1;HPM_P2
2023/05/26 00:00:02;;;;;;;4.20;3.90;;;15.00;99.90;;;15.21;79.69;95039.75;5052643;28;20987;-54
2023/05/26 00:02:30;;;;;;;3.80;3.50;;;15.00;99.90;;;15.19;79.36;95044.38;5059046;28;20926;-61
2023/05/26 00:04:59;;;;;;;5.90;3.73;;;15.00;99.90;;;15.17;79.71;95044.56;5049688;28;20479;-63
2023/05/26 00:07:26;;;;;;;3.97;3.57;;;14.90;99.90;;;15.17;79.86;95044.56;5058623;28;20558;-62
2023/05/26 00:09:53;;;;;;;6.90;4.37;;;14.90;99.90;;;15.14;79.07;95050.19;5056023;28;20495;-54
2023/05/26 00:12:21;;;;;;;10.30;3.83;;;14.90;99.90;;;15.11;79.14;95047.03;5056373;28;20462;-61
2023/05/26 00:14:50;;;;;;;5.10;3.70;;;14.90;99.90;;;15.07;79.55;95049.16;5054011;28;20495;-55
2023/05/26 00:17:18;;;;;;;2.87;2.67;;;14.90;99.90;;;15.04;79.05;95049.50;5058132;28;20459;-56
2023/05/26 00:19:45;;;;;;;3.33;3.03;;;14.80;99.90;;;14.98;78.89;95045.69;5059028;28;20991;-56
2023/05/26 00:22:14;;;;;;;13.00;2.60;;;14.80;99.90;;;14.92;78.77;95035.75;5059656;28;20455;-60
2023/05/26 00:24:42;;;;;;;9.60;2.63;;;14.70;99.90;;;14.87;78.58;95033.59;5053819;28;20474;-56
2023/05/26 00:27:09;;;;;;;9.63;1.90;;;14.70;99.90;;;14.83;78.28;95031.41;5063335;28;20462;-57
2023/05/26 00:29:37;;;;;;;7.23;2.20;;;14.60;99.90;;;14.76;78.12;95025.94;5055867;28;20491;-56
2023/05/26 00:32:06;;;;;;;3.93;2.30;;;14.50;99.90;;;14.72;77.96;95029.91;5060507;28;20537;-62
2023/05/26 00:34:34;;;;;;;2.00;1.80;;;14.50;99.90;;;14.68;77.93;95028.56;5058833;28;20497;-54
2023/05/26 00:37:01;;;;;;;3.10;2.37;;;14.50;99.90;;;14.64;77.90;95025.41;5067407;28;20450;-61
2023/05/26 00:39:29;;;;;;;3.73;2.30;;;14.40;99.90;;;14.61;78.19;95025.75;5060025;28;20483;-61
2023/05/26 00:41:57;;;;;;;7.50;2.50;;;14.40;99.90;;;14.60;78.67;95026.72;5065114;28;20446;-55
2023/05/26 00:44:24;;;;;;;8.43;2.20;;;14.40;99.90;;;14.58;78.34;95023.38;5058640;28;20540;-56
2023/05/26 00:46:51;;;;;;;9.73;2.27;;;14.40;99.90;;;14.56;78.04;95022.69;5063046;28;20455;-56
2023/05/26 00:49:20;;;;;;;2.50;2.30;;;14.40;99.90;;;14.53;78.04;95033.59;5059375;28;20545;-54
2023/05/26 00:51:47;;;;;;;1.93;1.83;;;14.40;99.90;;;14.50;78.39;95039.22;5062981;28;20451;-56
2023/05/26 00:54:14;;;;;;;2.37;2.27;;;14.30;99.90;;;14.48;78.29;95043.84;5059127;28;20470;-60
2023/05/26 00:56:42;;;;;;;2.63;2.30;;;14.30;99.90;;;14.47;78.75;95047.50;5058263;28;20504;-61
2023/05/26 00:59:11;;;;;;;3.40;2.10;;;14.30;99.90;;;14.47;78.98;95042.22;5059194;28;20475;-61
2023/05/26 01:01:38;;;;;;;2.53;2.33;;;14.20;99.90;;;14.47;79.20;95045.66;5057708;28;20513;-55
2023/05/26 01:04:06;;;;;;;2.97;2.50;;;14.20;99.90;;;14.46;79.00;95040.53;5057408;28;20479;-62
2023/05/26 01:06:34;;;;;;;3.23;2.20;;;14.30;99.90;;;14.45;79.30;95042.38;5056634;28;20448;-55
2023/05/26 01:09:02;;;;;;;6.73;3.47;;;14.30;99.90;;;14.45;79.50;95045.00;5057666;28;21052;-54
2023/05/26 01:11:32;;;;;;;2.80;2.60;;;14.30;99.90;;;14.46;78.99;95048.47;5055609;28;20510;-61
2023/05/26 01:14:04;;;;;;;2.77;2.60;;;14.30;99.90;;;14.41;79.18;95054.25;5058964;28;20524;-55
2023/05/26 01:16:39;;;;;;;3.37;3.07;;;14.20;99.90;;;14.40;79.24;95049.13;5054362;28;20452;-60
2023/05/26 01:19:19;;;;;;;3.60;3.27;;;14.20;99.90;;;14.39;79.63;95040.34;5057997;28;20470;-56
2023/05/26 01:21:48;;;;;;;6.40;2.77;;;14.20;99.90;;;14.40;79.76;95043.81;5059379;28;20454;-61
2023/05/26 01:24:22;;;;;;;3.10;2.90;;;14.20;99.90;;;14.41;79.58;95053.44;5057300;28;20472;-56
2023/05/26 01:27:04;;;;;;;4.90;3.63;;;14.20;99.90;;;14.38;79.71;95043.97;5060605;28;20454;-61
2023/05/26 01:29:35;;;;;;;2.60;2.40;;;14.20;99.90;;;14.36;79.30;95045.97;5057402;28;20466;-54
2023/05/26 01:32:09;;;;;;;3.40;3.10;;;14.20;99.90;;;14.34;79.76;95047.91;5056785;28;20451;-57
2023/05/26 01:34:37;;;;;;;9.23;2.10;;;14.10;99.90;;;14.33;79.92;95052.41;5055454;28;20467;-55
2023/05/26 01:37:05;;;;;;;2.17;2.07;;;14.10;99.90;;;14.32;79.84;95058.66;5057624;28;20507;-56
2023/05/26 01:39:32;;;;;;;4.60;3.17;;;14.10;99.90;;;14.29;79.83;95056.34;5055481;28;20597;-53
2023/05/26 01:42:08;;;;;;;5.13;2.90;;;14.10;99.90;;;14.32;80.00;95058.66;5056903;28;20535;-54
2023/05/26 01:44:42;;;;;;;3.53;3.23;;;14.10;99.90;;;14.32;80.05;95053.38;5059914;28;20467;-61
2023/05/26 01:47:09;;;;;;;5.70;3.37;;;14.10;99.90;;;14.31;79.59;95049.09;5054877;28;20455;-61
2023/05/26 01:49:36;;;;;;;4.00;3.60;;;14.10;99.90;;;14.31;79.77;95059.66;5063049;28;20502;-61
2023/05/26 01:52:07;;;;;;;3.23;2.93;;;14.10;99.90;;;14.31;79.91;95062.31;5054009;28;20968;-57
2023/05/26 01:54:35;;;;;;;2.83;2.63;;;14.10;99.90;;;14.31;79.69;95059.66;5058277;28;20467;-59
2023/05/26 01:57:03;;;;;;;14.50;2.90;;;14.10;99.90;;;14.28;79.71;95060.00;5055615;28;20452;-56
2023/05/26 01:59:31;;;;;;;5.53;3.63;;;14.10;99.90;;;14.26;79.78;95054.00;5059400;28;20470;-56
2023/05/26 02:01:59;;;;;;;3.53;2.97;;;14.10;99.90;;;14.24;79.72;95052.53;5056282;28;20444;-55
2023/05/26 02:04:27;;;;;;;3.30;3.00;;;14.00;99.90;;;14.22;79.61;95044.75;5056564;28;20482;-61
2023/05/26 02:06:55;;;;;;;4.70;3.50;;;14.00;99.90;;;14.21;79.76;95056.31;5055555;28;20443;-61
2023/05/26 02:09:22;;;;;;;4.00;3.70;;;14.00;99.90;;;14.18;79.94;95048.69;5058720;28;20472;-55
2023/05/26 02:11:50;;;;;;;17.03;3.23;;;14.00;99.90;;;14.16;79.76;95048.84;5058097;28;20487;-57
2023/05/26 02:14:17;;;;;;;2.30;2.20;;;14.00;99.90;;;14.16;79.93;95059.41;5057637;28;20976;-62
2023/05/26 02:16:45;;;;;;;4.33;2.73;;;14.00;99.90;;;14.15;79.88;95055.09;5058011;28;21038;-60
2023/05/26 02:19:14;;;;;;;3.93;3.70;;;14.00;99.90;;;14.14;79.47;95057.91;5053938;28;20606;-60
2023/05/26 02:21:41;;;;;;;8.67;3.27;;;14.00;99.90;;;14.13;79.78;95053.63;5058335;28;20463;-55
2023/05/26 02:24:09;;;;;;;2.90;2.70;;;13.90;99.90;;;14.11;79.90;95050.28;5055456;28;20476;-56
2023/05/26 02:26:37;;;;;;;2.93;2.73;;;13.90;99.90;;;14.11;79.98;95047.63;5058626;28;20459;-60
2023/05/26 02:29:04;;;;;;;4.60;2.60;;;13.90;99.90;;;14.10;80.15;95052.09;5055179;28;20480;-61
2023/05/26 02:31:34;;;;;;;6.80;2.70;;;13.90;99.90;;;14.10;80.27;95051.28;5057320;28;20576;-57
2023/05/26 02:34:01;;;;;;;5.40;3.37;;;13.90;99.90;;;14.09;79.65;95053.09;5050955;28;20495;-55
2023/05/26 02:36:31;;;;;;;3.13;2.93;;;13.90;99.90;;;14.06;79.61;95044.66;5057157;28;20451;-54
2023/05/26 02:38:59;;;;;;;4.10;3.20;;;13.90;99.90;;;14.05;79.86;95054.41;5054027;28;20464;-56
2023/05/26 02:41:26;;;;;;;3.20;3.00;;;13.90;99.90;;;14.03;80.38;95043.13;5059889;28;20554;-54
2023/05/26 02:43:57;;;;;;;5.67;3.37;;;13.90;99.90;;;14.02;80.13;95054.72;5056014;28;20855;-61
2023/05/26 02:46:24;;;;;;;5.63;3.10;;;13.80;99.90;;;14.02;80.20;95051.22;5059147;28;20529;-55
2023/05/26 02:48:51;;;;;;;2.80;2.60;;;13.80;99.90;;;14.02;79.93;95049.44;5055831;28;20476;-61
2023/05/26 02:51:19;;;;;;;3.43;2.87;;;13.80;99.90;;;14.04;79.97;95057.22;5059568;28;20493;-62
2023/05/26 02:53:47;;;;;;;2.87;2.67;;;13.80;99.90;;;14.03;79.97;95066.13;5056637;28;20532;-57
2023/05/26 02:56:15;;;;;;;4.10;2.40;;;13.80;99.90;;;14.02;80.06;95059.16;5055982;28;20452;-63
2023/05/26 02:58:43;;;;;;;5.13;2.57;;;13.80;99.90;;;14.00;79.90;95056.66;5057434;28;20475;-62
2023/05/26 03:01:10;;;;;;;6.60;2.70;;;13.80;99.90;;;13.99;79.74;95058.50;5056490;28;20521;-55
2023/05/26 03:03:38;;;;;;;8.03;2.53;;;13.80;99.90;;;13.97;79.74;95068.41;5056938;28;20480;-61
2023/05/26 03:06:05;;;;;;;2.90;2.70;;;13.80;99.90;;;13.96;79.57;95066.75;5055594;28;20455;-55
2023/05/26 03:08:33;;;;;;;7.40;2.97;;;13.80;99.90;;;13.93;79.33;95067.06;5057995;28;20917;-62
2023/05/26 03:11:02;;;;;;;2.60;2.40;;;13.80;99.90;;;13.92;79.46;95068.03;5054617;28;20549;-62
2023/05/26 03:13:29;;;;;;;4.93;2.50;;;13.70;99.90;;;13.88;79.50;95077.28;5058452;28;20997;-62
2023/05/26 03:15:58;;;;;;;4.07;2.33;;;13.70;99.90;;;13.90;79.81;95077.13;5059896;28;20452;-61
2023/05/26 03:18:26;;;;;;;3.00;2.80;;;13.70;99.90;;;13.91;79.74;95079.59;5068958;28;20462;-55
2023/05/26 03:20:54;;;;;;;2.90;2.70;;;13.70;99.90;;;13.92;79.39;95086.53;5064413;28;20985;-55
2023/05/26 03:23:22;;;;;;;2.80;2.60;;;13.70;99.90;;;13.94;79.31;95092.53;5056874;28;20468;-61
2023/05/26 03:25:49;;;;;;;4.40;3.33;;;13.70;99.90;;;13.93;79.64;95085.56;5059800;28;20513;-55
2023/05/26 03:28:18;;;;;;;5.00;3.20;;;13.80;99.90;;;13.94;79.28;95092.53;5055145;28;20484;-60
2023/05/26 03:30:46;;;;;;;3.50;2.80;;;13.70;99.90;;;13.96;79.75;95093.19;5052679;28;21034;-55
2023/05/26 03:33:13;;;;;;;19.23;3.80;;;13.80;99.90;;;13.97;79.91;95100.16;5053951;28;20454;-56
2023/05/26 03:35:40;;;;;;;3.10;2.90;;;13.80;99.90;;;14.01;80.25;95095.38;5059678;28;20889;-58
2023/05/26 03:38:07;;;;;;;3.27;2.97;;;13.80;99.90;;;14.05;79.98;95090.59;5053196;28;20452;-55
2023/05/26 03:40:34;;;;;;;3.43;3.17;;;13.80;99.90;;;14.06;79.67;95101.00;5062586;28;20459;-60
2023/05/26 03:43:02;;;;;;;4.70;3.10;;;13.90;99.90;;;14.04;79.80;95095.06;5055835;28;20458;-55
2023/05/26 03:45:30;;;;;;;5.93;3.50;;;13.90;99.90;;;14.10;79.75;95104.19;5055679;28;20538;-64
2023/05/26 03:47:58;;;;;;;5.77;3.87;;;13.90;99.90;;;14.11;79.27;95098.75;5053339;28;20458;-56
2023/05/26 03:50:25;;;;;;;9.73;5.13;;;13.90;99.90;;;14.11;79.36;95098.75;5065343;28;21065;-56
2023/05/26 03:52:53;;;;;;;6.93;5.13;;;13.90;99.90;;;14.13;79.64;95103.88;5059892;28;20868;-56
2023/05/26 03:55:20;;;;;;;7.90;4.63;;;13.90;99.90;;;14.14;79.54;95108.16;5060080;28;20482;-61
2023/05/26 03:57:47;;;;;;;18.60;4.90;;;14.00;99.90;;;14.16;79.47;95108.84;5059700;28;20972;-57
2023/05/26 04:00:16;;;;;;;4.40;4.00;;;14.00;99.90;;;14.19;79.62;95097.13;5060824;28;20474;-55
2023/05/26 04:02:45;;;;;;;3.83;3.53;;;14.00;99.90;;;14.21;79.33;95095.16;5058755;28;20970;-55
2023/05/26 04:05:13;;;;;;;8.60;5.13;;;14.00;99.90;;;14.23;79.37;95099.28;5061034;28;20528;-62
2023/05/26 04:07:42;;;;;;;4.87;4.30;;;14.00;99.90;;;14.24;79.18;95093.03;5054458;28;20834;-62
2023/05/26 04:10:10;;;;;;;7.30;3.90;;;14.00;99.90;;;14.26;79.10;95096.34;5062566;28;20990;-62
2023/05/26 04:12:37;;;;;;;10.03;4.30;;;14.10;99.90;;;14.27;79.31;95087.41;5057085;28;21033;-55
2023/05/26 04:15:06;;;;;;;6.33;3.73;;;14.10;99.90;;;14.28;79.60;95086.44;5062096;28;20831;-56
2023/05/26 04:17:34;;;;;;;4.13;3.73;;;14.10;99.90;;;14.32;79.29;95089.59;5058408;28;20478;-63
2023/05/26 04:20:05;;;;;;;10.80;4.30;;;14.10;99.90;;;14.34;79.17;95092.91;5060018;28;20510;-61
2023/05/26 04:22:32;;;;;;;5.77;4.63;;;14.10;99.90;;;14.37;79.28;95089.13;5058854;28;20529;-56
2023/05/26 04:25:00;;;;;;;11.87;3.60;;;14.10;99.90;;;14.39;78.93;95088.00;5059568;28;20478;-61
2023/05/26 04:27:28;;;;;;;8.23;4.97;;;14.20;99.90;;;14.42;78.83;95089.47;5059695;28;20546;-61
2023/05/26 04:29:58;;;;;;;7.87;4.00;;;14.20;99.90;;;14.43;78.92;95089.31;5055475;28;21042;-61
2023/05/26 04:32:25;;;;;;;6.50;4.20;;;14.20;99.90;;;14.47;79.23;95084.56;5056424;28;20558;-60
2023/05/26 04:34:53;;;;;;;4.40;3.43;;;14.30;99.90;;;14.51;78.98;95093.81;5058367;28;20576;-64
2023/05/26 04:37:22;;;;;;;7.40;4.53;;;14.30;99.90;;;14.55;79.08;95089.88;5061365;28;20464;-61
2023/05/26 04:39:49;;;;;;;6.77;4.03;;;14.40;99.90;;;14.61;79.16;95091.06;5056701;28;20637;-61
2023/05/26 04:42:18;;;;;;;21.07;4.33;;;14.40;99.90;;;14.65;78.93;95095.88;5061714;28;20466;-62
2023/05/26 04:44:46;;;;;;;6.00;4.50;;;14.40;99.90;;;14.70;79.51;95103.34;5056544;28;20478;-56
2023/05/26 04:47:16;;;;;;;8.93;3.70;;;14.50;99.90;;;14.77;79.16;95100.91;5062980;28;20455;-63
2023/05/26 04:49:44;;;;;;;6.03;4.20;;;14.50;99.90;;;14.83;79.33;95100.28;5061978;28;20466;-57
2023/05/26 04:52:11;;;;;;;6.90;4.07;;;14.60;99.90;;;14.88;79.03;95087.38;5062884;28;20552;-61
2023/05/26 04:54:42;;;;;;;7.17;4.60;;;14.60;99.90;;;14.94;78.93;95089.38;5055532;28;20901;-63
2023/05/26 04:57:09;;;;;;;5.50;4.00;;;14.70;99.90;;;14.98;78.65;95087.22;5059722;28;20472;-63
2023/05/26 04:59:38;;;;;;;6.83;3.23;;;14.70;99.90;;;15.05;78.55;95093.53;5058880;28;20472;-56
2023/05/26 05:02:05;;;;;;;8.40;4.60;;;14.80;99.90;;;15.10;78.75;95085.09;5055666;28;20452;-63
2023/05/26 05:04:33;;;;;;;14.30;3.70;;;14.90;99.90;;;15.17;78.87;95088.78;5058465;28;20468;-57
2023/05/26 05:07:00;;;;;;;13.40;4.07;;;15.00;99.90;;;15.25;78.81;95083.47;5059112;28;20463;-56
2023/05/26 05:09:27;;;;;;;11.43;4.50;;;15.00;99.90;;;15.34;78.60;95084.34;5059174;28;20472;-55
2023/05/26 05:11:56;;;;;;;5.83;4.70;;;15.10;99.90;;;15.44;78.32;95076.22;5062502;28;20490;-62
2023/05/26 05:14:24;;;;;;;9.33;4.10;;;15.20;99.90;;;15.50;78.49;95084.31;5056179;28;20553;-56
2023/05/26 05:16:52;;;;;;;6.03;3.90;;;15.30;99.90;;;15.60;78.44;95086.84;5057369;28;20488;-63
2023/05/26 05:19:19;;;;;;;7.43;3.80;;;15.40;99.90;;;15.72;77.97;95080.22;5059624;28;20845;-57
2023/05/26 05:21:46;;;;;;;4.67;4.30;;;15.50;99.90;;;15.84;77.73;95082.53;5056283;28;20451;-57
2023/05/26 05:24:14;;;;;;;9.33;3.90;;;15.50;99.90;;;15.97;77.41;95079.38;5059756;28;20541;-63
2023/05/26 05:26:41;;;;;;;9.00;4.03;;;15.60;99.90;;;16.11;77.27;95079.53;5059976;28;20463;-55
2023/05/26 05:29:10;;;;;;;12.57;4.00;;;15.80;99.90;;;16.26;77.16;95084.13;5057950;28;20532;-62
2023/05/26 05:31:38;;;;;;;7.93;3.70;;;16.00;99.90;;;16.43;76.97;95077.78;5053958;28;20483;-56
2023/05/26 05:34:05;;;;;;;6.10;4.50;;;16.10;99.90;;;16.61;76.42;95080.22;5057715;28;20890;-55
2023/05/26 05:36:33;;;;;;;5.43;4.30;;;16.30;99.90;;;16.80;76.37;95081.63;5057506;28;20453;-62
2023/05/26 05:39:00;;;;;;;15.13;6.93;;;16.50;99.90;;;17.05;75.46;95092.16;5059469;28;20513;-55
2023/05/26 05:41:28;;;;;;;13.37;5.77;;;16.70;99.90;;;17.29;74.46;95093.00;5057299;28;20459;-64
2023/05/26 05:43:56;;;;;;;17.67;5.80;;;16.90;99.90;;;17.51;73.94;95096.72;5060272;28;20503;-63
2023/05/26 05:46:25;;;;;;;12.13;4.67;;;17.10;99.90;;;17.76;73.42;95104.50;5055803;28;20506;-56
2023/05/26 05:48:52;;;;;;;12.50;4.27;;;17.30;99.90;;;17.99;73.26;95093.88;5060203;28;20486;-62
2023/05/26 05:51:20;;;;;;;8.67;4.07;;;17.50;99.90;;;18.17;72.43;95097.03;5064193;28;20491;-64
2023/05/26 05:53:47;;;;;;;6.50;4.10;;;17.80;99.90;;;18.38;71.68;95101.63;5062024;28;20477;-63
2023/05/26 05:56:14;;;;;;;4.17;3.27;;;18.00;99.90;;;18.59;70.93;95105.38;5051238;28;20792;-56
2023/05/26 05:58:42;;;;;;;20.73;3.90;;;18.20;99.90;;;18.80;70.58;95096.66;5061437;28;20539;-56
2023/05/26 06:01:09;;;;;;;6.30;4.13;;;18.40;99.90;;;19.03;70.24;95101.09;5052300;28;20460;-54
2023/05/26 06:03:38;;;;;;;9.27;4.93;;;18.60;99.90;;;19.26;69.71;95096.44;5059303;28;21206;-63
2023/05/26 06:06:05;;;;;;;5.73;3.03;;;18.80;99.90;;;19.48;68.13;95093.78;5055714;28;20964;-56
2023/05/26 06:08:33;;;;;;;9.70;3.00;;;19.00;99.90;;;19.70;68.17;95090.13;5058987;28;20477;-63
2023/05/26 06:11:00;;;;;;;3.10;2.87;;;19.20;99.90;;;19.94;65.86;95088.09;5056459;28;20455;-63
2023/05/26 06:13:27;;;;;;;20.43;2.87;;;19.40;99.90;;;20.14;66.62;95092.75;5057549;28;20488;-64
2023/05/26 06:15:54;;;;;;;3.23;2.93;;;19.60;99.90;;;20.33;66.65;95089.41;5057289;28;20452;-54
2023/05/26 06:18:22;;;;;;;6.30;2.47;;;19.90;99.90;;;20.56;66.12;95093.69;5057645;28;20890;-54
2023/05/26 06:20:50;;;;;;;9.60;3.40;;;20.10;99.90;;;20.74;65.28;95091.34;5057228;28;20921;-64
2023/05/26 06:23:18;;;;;;;3.30;2.40;;;20.30;99.90;;;20.95;65.15;95095.75;5056424;28;20884;-55
2023/05/26 06:25:45;;;;;;;5.03;3.20;;;20.40;99.90;;;21.15;64.85;95100.38;5058047;28;20451;-63
2023/05/26 06:28:12;;;;;;;8.60;2.90;;;20.70;99.90;;;21.33;64.54;95102.47;5056027;28;20459;-62
2023/05/26 06:30:40;;;;;;;7.97;2.77;;;20.80;99.90;;;21.49;64.23;95096.78;5056427;28;21030;-56
2023/05/26 06:33:07;;;;;;;2.80;2.60;;;21.00;99.90;;;21.67;63.26;95103.41;5054514;28;20496;-57
2023/05/26 06:35:34;;;;;;;3.80;3.07;;;21.20;99.90;;;21.85;62.28;95100.97;5059066;28;20952;-54
2023/05/26 06:38:03;;;;;;;6.17;3.43;;;21.30;99.90;;;22.02;62.69;95105.94;5057358;28;20980;-62
2023/05/26 06:40:30;;;;;;;4.30;3.03;;;21.50;99.90;;;22.15;62.52;95105.97;5058014;28;20516;-63
2023/05/26 06:42:58;;;;;;;4.40;3.20;;;21.60;99.90;;;22.29;61.06;95105.94;5061155;28;20455;-57
2023/05/26 06:45:25;;;;;;;4.60;4.13;;;21.80;99.90;;;22.44;60.65;95108.44;5059124;28;20480;-63
2023/05/26 06:47:52;;;;;;;4.33;3.30;;;21.90;99.90;;;22.52;61.12;95103.66;5054999;28;20971;-63
2023/05/26 06:50:20;;;;;;;5.30;3.40;;;22.00;99.90;;;22.58;60.99;95102.03;5062666;28;20553;-56
2023/05/26 06:52:48;;;;;;;6.80;3.00;;;22.10;99.90;;;22.66;60.92;95106.34;5056504;28;20491;-56
2023/05/26 06:55:17;;;;;;;2.60;2.40;;;22.10;99.90;;;22.80;59.33;95104.44;5057062;28;21053;-63
2023/05/26 06:57:44;;;;;;;3.43;2.37;;;22.30;99.90;;;22.96;59.28;95100.47;5055309;28;20510;-63
2023/05/26 07:00:13;;;;;;;3.70;2.93;;;22.40;99.90;;;23.15;59.25;95090.75;5059469;28;20537;-56
2023/05/26 07:02:41;;;;;;;4.20;3.43;;;22.60;99.90;;;23.33;58.88;95090.03;5053602;28;20522;-55
2023/05/26 07:05:09;;;;;;;2.83;2.63;;;22.70;99.90;;;23.50;58.72;95093.91;5059477;28;20490;-56
2023/05/26 07:07:36;;;;;;;3.60;3.30;;;22.90;99.90;;;23.62;58.33;95094.84;5054296;28;20463;-63
2023/05/26 07:10:04;;;;;;;6.07;3.10;;;23.10;99.90;;;23.75;57.89;95088.56;5060239;28;20467;-63
2023/05/26 07:12:33;;;;;;;8.30;2.80;;;23.20;99.90;;;23.92;57.51;95088.06;5053431;28;20560;-57
2023/05/26 07:15:01;;;;;;;4.00;3.00;;;23.30;99.30;;;23.94;56.79;95084.13;5058687;28;20470;-63
2023/05/26 07:17:28;;;;;;;3.50;3.20;;;23.40;98.80;;;24.05;56.51;95081.78;5054710;28;20444;-55
2023/05/26 07:19:55;;;;;;;7.13;3.00;;;23.50;98.70;;;24.14;56.51;95085.84;5056184;28;20497;-61
2023/05/26 07:22:23;;;;;;;4.87;3.20;;;23.60;98.70;;;24.23;55.56;95094.44;5055879;28;20579;-62
2023/05/26 07:24:50;;;;;;;9.20;3.00;;;23.70;97.90;;;24.27;54.23;95085.72;5058303;28;20470;-63
2023/05/26 07:27:17;;;;;;;3.20;3.00;;;23.70;96.60;;;24.41;55.53;95086.41;5055749;28;20458;-62
2023/05/26 07:29:46;;;;;;;16.17;3.70;;;23.80;97.50;;;24.55;55.11;95087.13;5057237;28;20477;-57
2023/05/26 07:32:13;;;;;;;4.27;3.90;;;24.00;97.20;;;24.53;55.18;95091.91;5055792;28;20490;-54
2023/05/26 07:34:41;;;;;;;4.07;3.77;;;24.00;96.90;;;24.56;55.33;95099.53;5055721;28;20467;-62
2023/05/26 07:37:09;;;;;;;10.33;3.73;;;24.00;97.30;;;24.70;55.23;95089.50;5056824;28;20984;-54
2023/05/26 07:39:36;;;;;;;15.83;4.13;;;24.10;97.40;;;24.95;55.55;95092.09;5055829;28;20491;-56
2023/05/26 07:42:04;;;;;;;10.13;3.50;;;24.30;97.40;;;25.27;54.52;95089.25;5057873;28;20931;-62
2023/05/26 07:44:31;;;;;;;12.13;3.57;;;24.60;96.90;;;25.53;53.69;95082.75;5056841;28;20584;-55
2023/05/26 07:47:00;;;;;;;5.13;3.03;;;24.90;96.40;;;25.82;53.46;95082.94;5058320;28;20899;-63
2023/05/26 07:49:27;;;;;;;5.40;3.00;;;25.20;96.10;;;26.11;52.91;95089.34;5061627;28;20461;-57
2023/05/26 07:51:54;;;;;;;5.70;3.20;;;25.50;95.50;;;26.36;52.11;95091.03;5057286;28;20566;-56
2023/05/26 07:54:21;;;;;;;5.70;2.90;;;25.70;94.70;;;26.60;51.66;95085.63;5057861;28;20475;-63
2023/05/26 07:56:49;;;;;;;5.43;3.50;;;26.00;94.30;;;26.83;51.59;95082.97;5054612;28;20499;-63
2023/05/26 07:59:17;;;;;;;3.83;3.17;;;26.20;93.90;;;27.10;51.25;95068.94;5055674;28;20498;-61
2023/05/26 08:01:44;;;;;;;4.80;3.17;;;26.50;93.80;;;27.40;51.08;95070.66;5052435;28;20455;-56
2023/05/26 08:04:13;;;;;;;7.03;3.53;;;26.80;93.40;;;27.52;50.13;95078.72;5054599;28;20471;-56
2023/05/26 08:06:41;;;;;;;4.50;4.10;;;26.90;92.40;;;27.58;50.54;95068.84;5056697;28;20454;-62
2023/05/26 08:09:10;;;;;;;4.80;3.60;;;27.00;92.50;;;27.51;50.32;95069.78;5055689;28;20471;-62
2023/05/26 08:11:38;;;;;;;9.67;5.37;;;27.00;91.80;;;27.31;50.00;95072.06;5058722;28;20451;-56
2023/05/26 08:14:05;;;;;;;7.20;3.60;;;26.90;91.30;;;27.02;49.23;95070.13;5054562;28;20475;-63
2023/05/26 08:16:33;;;;;;;4.40;4.00;;;26.70;90.30;;;26.77;49.72;95066.88;5057301;28;20460;-56
2023/05/26 08:19:00;;;;;;;6.77;4.10;;;26.50;90.20;;;26.67;49.97;95072.06;5055485;28;20545;-58
2023/05/26 08:21:29;;;;;;;6.70;4.30;;;26.30;90.60;;;26.69;49.71;95073.47;5060291;28;20442;-56
2023/05/26 08:23:56;;;;;;;16.03;3.70;;;26.20;90.50;;;26.75;49.06;95064.41;5055556;28;20534;-55
2023/05/26 08:26:25;;;;;;;6.87;4.40;;;26.30;90.00;;;26.75;49.08;95067.13;5059050;28;21047;-62
2023/05/26 08:28:53;;;;;;;17.40;4.20;;;26.30;88.50;;;26.82;49.45;95062.44;5057227;28;20471;-57
2023/05/26 08:31:20;;;;;;;4.73;4.43;;;26.30;89.90;;;27.04;49.24;95056.41;5051496;28;20967;-56
2023/05/26 08:33:48;;;;;;;6.63;4.70;;;26.50;90.00;;;27.15;48.62;95049.34;5053831;28;20552;-62
2023/05/26 08:36:15;;;;;;;7.53;4.80;;;26.70;88.50;;;27.27;47.65;95047.41;5058494;28;20976;-63
2023/05/26 08:38:44;;;;;;;6.87;4.87;;;26.80;86.50;;;27.25;47.53;95035.19;5058476;28;21031;-56
2023/05/26 08:41:11;;;;;;;7.53;4.40;;;26.80;85.50;;;27.27;48.31;95035.81;5059232;28;20459;-62
2023/05/26 08:43:42;;;;;;;5.50;4.67;;;26.80;86.50;;;27.35;48.41;95040.84;5059702;28;20482;-63
2023/05/26 08:46:11;;;;;;;4.70;4.10;;;26.80;86.50;;;27.60;47.93;95048.59;5060323;28;20451;-57
2023/05/26 08:48:39;;;;;;;10.57;5.23;;;27.00;86.70;;;27.74;46.98;95051.81;5060029;28;20493;-61
2023/05/26 08:51:06;;;;;;;11.00;4.87;;;27.20;85.00;;;27.68;47.60;95053.59;5067351;28;20454;-57
2023/05/26 08:53:33;;;;;;;14.37;5.90;;;27.20;84.00;;;27.67;47.99;95061.94;5059663;28;20497;-56
2023/05/26 08:56:02;;;;;;;4.80;4.30;;;27.20;84.70;;;27.70;46.39;95056.06;5055932;28;21152;-61
2023/05/26 08:58:30;;;;;;;10.60;4.50;;;27.20;81.40;;;27.77;46.93;95059.44;5062482;28;20547;-56
2023/05/26 09:00:58;;;;;;;10.77;5.70;;;27.30;83.40;;;27.80;47.16;95050.84;5057085;28;20459;-62
2023/05/26 09:03:25;;;;;;;7.13;5.40;;;27.30;83.10;;;27.88;47.06;95053.13;5060953;28;21154;-63
2023/05/26 09:05:52;;;;;;;26.17;6.00;;;27.30;83.60;;;27.96;47.25;95045.72;5052076;28;20451;-56
2023/05/26 09:08:20;;;;;;;9.70;5.97;;;27.40;82.70;;;28.00;47.05;95036.88;5061968;28;20532;-56
2023/05/26 09:10:47;;;;;;;7.97;4.63;;;27.50;82.10;;;28.07;46.82;95034.00;5056130;28;20451;-62
2023/05/26 09:13:17;;;;;;;5.73;4.90;;;27.50;81.60;;;28.31;45.97;95036.56;5060756;28;20501;-62
2023/05/26 09:15:49;;;;;;;8.43;5.10;;;27.70;80.10;;;28.51;45.25;95044.16;5059111;28;20799;-62
2023/05/26 09:18:17;;;;;;;13.70;7.47;;;27.90;79.80;;;28.58;44.70;95036.66;5059159;28;22238;-56
2023/05/26 09:20:45;;;;;;;7.53;6.17;;;28.00;76.60;;;28.48;45.79;95045.47;5058978;28;20509;-62
2023/05/26 09:23:13;;;;;;;14.40;7.30;;;28.00;78.70;;;28.37;45.98;95043.69;5059278;28;20447;-57
2023/05/26 09:25:41;;;;;;;8.93;5.60;;;27.90;79.50;;;28.17;46.79;95055.00;5055161;28;21025;-63
2023/05/26 09:28:10;;;;;;;6.27;4.60;;;27.70;79.80;;;27.92;46.38;95064.31;5057454;28;20972;-63
2023/05/26 09:30:40;;;;;;;7.33;6.60;;;27.50;79.60;;;27.68;46.95;95063.59;5060625;28;20451;-58
2023/05/26 09:33:09;;;;;;;7.00;6.40;;;27.30;80.10;;;27.33;47.71;95069.97;5053371;28;20570;-61
2023/05/26 09:35:38;;;;;;;6.50;6.00;;;27.00;81.10;;;27.02;48.50;95070.13;5060940;28;20526;-57
2023/05/26 09:38:06;;;;;;;8.50;6.70;;;26.70;82.50;;;26.69;49.33;95069.94;5056246;28;20451;-62
2023/05/26 09:40:33;;;;;;;16.67;5.80;;;26.30;83.60;;;26.25;49.78;95067.59;5060774;28;20466;-62
2023/05/26 09:43:01;;;;;;;5.80;5.27;;;25.90;84.40;;;25.86;50.87;95062.56;5055847;28;20474;-54
2023/05/26 09:45:35;;;;;;;5.50;5.00;;;25.60;85.60;;;25.57;51.18;95064.25;5056705;28;20821;-55
2023/05/26 09:48:04;;;;;;;4.53;4.17;;;25.20;86.60;;;25.37;51.61;95057.25;5057856;28;20833;-62
2023/05/26 09:50:32;;;;;;;4.60;4.30;;;25.00;88.10;;;25.23;51.81;95061.94;5065305;28;20538;-62
2023/05/26 09:53:01;;;;;;;5.10;3.77;;;24.80;89.00;;;24.92;51.21;95068.34;5054522;28;20845;-61
2023/05/26 09:55:28;;;;;;;3.23;3.03;;;24.60;87.10;;;24.57;51.43;95073.44;5059036;28;20457;-53
2023/05/26 09:57:55;;;;;;;6.03;3.00;;;24.30;86.30;;;24.20;51.12;95079.59;5055180;28;20520;-58
2023/05/26 10:00:25;;;;;;;3.73;3.30;;;24.00;86.40;;;23.89;52.12;95085.81;5061354;28;20453;-55
2023/05/26 10:02:52;;;;;;;2.90;2.37;;;23.70;87.50;;;23.65;52.22;95073.97;5053340;28;21059;-61
2023/05/26 10:05:22;;;;;;;3.83;2.77;;;23.40;88.30;;;23.42;52.25;95078.00;5059909;28;20536;-63
2023/05/26 10:07:49;;;;;;;4.40;3.17;;;23.10;87.30;;;23.17;53.11;95076.06;5056459;28;20526;-62
2023/05/26 10:10:17;;;;;;;5.80;3.53;;;22.90;88.80;;;22.99;53.04;95073.22;5060197;28;20474;-62
2023/05/26 10:12:44;;;;;;;3.70;3.40;;;22.70;89.90;;;22.85;54.32;95065.25;5056669;28;20487;-58
2023/05/26 10:15:11;;;;;;;3.37;3.13;;;22.50;90.40;;;22.74;54.35;95066.72;5058590;28;20470;-61
2023/05/26 10:17:41;;;;;;;2.47;2.27;;;22.40;90.60;;;22.68;54.00;95064.03;5056703;28;20455;-54
2023/05/26 10:20:09;;;;;;;6.07;2.87;;;22.30;90.70;;;22.59;54.12;95060.78;5058369;28;21021;-62